Crested Butte, Colorado
Current Conditions -  °F | °C
As of 2:35 AM on Saturday 25 Oct 2014 (Local Time) from KGUC Reporting Station
Clear Clear  
Wind Chill: 27°   Ceiling: Unl
Heat Index: 27°   Visibility: 10mi
Dew Point: 18°   Wind: 0mph
Humidity: 69%   Direction: NA
Pressure: 30.5"   Gusts: NA
Location:  38.87°N, 106.98°W
Report Text: KGUC 250835Z AUTO 00000KT 10SM CLR M03/M08 A3050 RMK AO1
Loading
Personal Weather Stations






























Interactive Weather Map
Tropical Storm Tracking
New forecast layout! Learn more

10-Day Weather Forecast

Advertisements
Track Severe Weather on mobile